Time;durP1;ratioP1;P1;durP2;ratioP2;P2;SDS_P1;SDS_P2;PMS_P1;PMS_P2;Temp;Humidity;BMP_temperature;BMP_pressure;BME280_temperature;BME280_humidity;BME280_pressure;Samples;Min_cycle;Max_cycle;Signal;HPM_P1;HPM_P2
2023/03/09 00:00:48;;;;;;;;;;;;;;;;;;1866584;29;7027;-64
2023/03/09 00:01:50;;;;;;;;;;;;;;;;;;1867108;29;7101;-65
2023/03/09 00:02:47;;;;;;;;;;;;;;;;;;1868974;29;8376;-64
2023/03/09 00:03:45;;;;;;;;;;;;;;;;;;1868933;29;8010;-65
2023/03/09 00:04:42;;;;;;;;;;;;;;;;;;1868934;29;7513;-65
2023/03/09 00:05:40;;;;;;;;;;;;;;;;;;1868181;29;7993;-65
2023/03/09 00:06:37;;;;;;;;;;;;;;;;;;1868340;29;7013;-65
2023/03/09 00:07:35;;;;;;;;;;;;;;;;;;1868393;29;7101;-65
2023/03/09 00:08:33;;;;;;;;;;;;;;;;;;1868306;29;7010;-65
2023/03/09 00:09:30;;;;;;;;;;;;;;;;;;1869354;29;7030;-65
2023/03/09 00:10:27;;;;;;;;;;;;;;;;;;1869177;29;7129;-65
2023/03/09 00:11:25;;;;;;;;;;;;;;;;;;1867397;29;7984;-64
2023/03/09 00:12:22;;;;;;;;;;;;;;;;;;1868489;29;7378;-65
2023/03/09 00:13:21;;;;;;;;;;;;;;;;;;1868540;29;7093;-64
2023/03/09 00:14:21;;;;;;;;;;;;;;;;;;1868461;29;7329;-64
2023/03/09 00:15:18;;;;;;;;;;;;;;;;;;1869056;29;7101;-65
2023/03/09 00:16:21;;;;;;;;;;;;;;;;;;1868581;29;7030;-64
2023/03/09 00:17:18;;;;;;;;;;;;;;;;;;1869019;29;7236;-65
2023/03/09 00:18:19;;;;;;;;;;;;;;;;;;1868718;29;7010;-65
2023/03/09 00:19:26;;;;;;;;;;;;;;;;;;1868491;29;7105;-64
2023/03/09 00:20:24;;;;;;;;;;;;;;;;;;1868556;29;8074;-65
2023/03/09 00:21:34;;;;;;;;;;;;;;;;;;1868019;29;8097;-65
2023/03/09 00:22:32;;;;;;;;;;;;;;;;;;1868493;29;7121;-64
2023/03/09 00:23:30;;;;;;;;;;;;;;;;;;1871244;28;7093;-65
2023/03/09 00:24:27;;;;;;;;;;;;;;;;;;1869312;28;7271;-65
2023/03/09 00:25:24;;;;;;;;;;;;;;;;;;1866932;29;7121;-65
2023/03/09 00:26:22;;;;;;;;;;;;;;;;;;1868128;29;8030;-65
2023/03/09 00:27:19;;;;;;;;;;;;;;;;;;1868677;29;7002;-64
2023/03/09 00:28:16;;;;;;;;;;;;;;;;;;1873404;28;7081;-64
2023/03/09 00:29:14;;;;;;;;;;;;;;;;;;1874252;28;7006;-64
2023/03/09 00:30:13;;;;;;;;;;;;;;;;;;1874332;28;7122;-65
2023/03/09 00:31:10;;;;;;;;;;;;;;;;;;1873042;28;7006;-64
2023/03/09 00:32:07;;;;;;;;;;;;;;;;;;1874068;28;7360;-64
2023/03/09 00:33:05;;;;;;;;;;;;;;;;;;1870819;28;7006;-64
2023/03/09 00:34:03;;;;;;;;;;;;;;;;;;1868601;29;7030;-64
2023/03/09 00:35:00;;;;;;;;;;;;;;;;;;1871855;28;7141;-64
2023/03/09 00:35:58;;;;;;;;;;;;;;;;;;1868442;28;7002;-64
2023/03/09 00:36:55;;;;;;;;;;;;;;;;;;1873064;28;8048;-64
2023/03/09 00:37:53;;;;;;;;;;;;;;;;;;1868335;28;7038;-64
2023/03/09 00:38:51;;;;;;;;;;;;;;;;;;1868356;29;7093;-65
2023/03/09 00:39:49;;;;;;;;;;;;;;;;;;1868105;29;7142;-65
2023/03/09 00:40:46;;;;;;;;;;;;;;;;;;1874977;28;7062;-64
2023/03/09 00:41:44;;;;;;;;;;;;;;;;;;1872441;28;7093;-64
2023/03/09 00:42:42;;;;;;;;;;;;;;;;;;1870076;28;7034;-65
2023/03/09 00:43:39;;;;;;;;;;;;;;;;;;1869627;28;7101;-65
2023/03/09 00:44:36;;;;;;;;;;;;;;;;;;1868209;29;7184;-65
2023/03/09 00:45:34;;;;;;;;;;;;;;;;;;1868311;29;7093;-65
2023/03/09 00:46:32;;;;;;;;;;;;;;;;;;1867991;29;7149;-65
2023/03/09 00:47:30;;;;;;;;;;;;;;;;;;1871900;28;7042;-65
2023/03/09 00:48:27;;;;;;;;;;;;;;;;;;1872870;28;7137;-65
2023/03/09 00:49:25;;;;;;;;;;;;;;;;;;1872235;28;7026;-65
2023/03/09 00:50:22;;;;;;;;;;;;;;;;;;1875472;28;8012;-64
2023/03/09 00:51:20;;;;;;;;;;;;;;;;;;1871831;28;7010;-65
2023/03/09 00:52:17;;;;;;;;;;;;;;;;;;1870398;28;7117;-64
2023/03/09 00:53:14;;;;;;;;;;;;;;;;;;1875363;28;7089;-64
2023/03/09 00:54:13;;;;;;;;;;;;;;;;;;1873951;28;9068;-64
2023/03/09 00:55:11;;;;;;;;;;;;;;;;;;1875674;28;8024;-65
2023/03/09 00:56:12;;;;;;;;;;;;;;;;;;1874216;28;7013;-64
2023/03/09 00:57:10;;;;;;;;;;;;;;;;;;1868272;28;8023;-65
2023/03/09 00:58:07;;;;;;;;;;;;;;;;;;1872528;28;7010;-65
2023/03/09 00:59:05;;;;;;;;;;;;;;;;;;1868186;29;7002;-64
2023/03/09 01:00:04;;;;;;;;;;;;;;;;;;1871323;28;8020;-64
2023/03/09 01:01:05;;;;;;;;;;;;;;;;;;1872288;28;7161;-64
2023/03/09 01:02:03;;;;;;;;;;;;;;;;;;1872241;28;7030;-65
2023/03/09 01:03:00;;;;;;;;;;;;;;;;;;1875461;28;7408;-64
2023/03/09 01:03:58;;;;;;;;;;;;;;;;;;1873451;28;7097;-64
2023/03/09 01:04:55;;;;;;;;;;;;;;;;;;1871297;28;7113;-64
2023/03/09 01:05:52;;;;;;;;;;;;;;;;;;1869453;28;7080;-65
2023/03/09 01:06:53;;;;;;;;;;;;;;;;;;1871263;28;8014;-64
2023/03/09 01:07:50;;;;;;;;;;;;;;;;;;1866145;29;7013;-65
2023/03/09 01:08:47;;;;;;;;;;;;;;;;;;1867289;29;7010;-65
2023/03/09 01:09:45;;;;;;;;;;;;;;;;;;1874486;28;7010;-64
2023/03/09 01:10:42;;;;;;;;;;;;;;;;;;1873059;28;7093;-65
2023/03/09 01:11:40;;;;;;;;;;;;;;;;;;1874053;28;7085;-64
2023/03/09 01:12:37;;;;;;;;;;;;;;;;;;1875848;28;7006;-65
2023/03/09 01:13:35;;;;;;;;;;;;;;;;;;1874787;28;7022;-64
2023/03/09 01:14:34;;;;;;;;;;;;;;;;;;1875245;28;7025;-64
2023/03/09 01:15:31;;;;;;;;;;;;;;;;;;1875372;28;9634;-65
2023/03/09 01:16:28;;;;;;;;;;;;;;;;;;1869872;28;7097;-64
2023/03/09 01:17:26;;;;;;;;;;;;;;;;;;1871475;28;7089;-65
2023/03/09 01:18:23;;;;;;;;;;;;;;;;;;1869790;28;7006;-65
2023/03/09 01:19:21;;;;;;;;;;;;;;;;;;1869544;28;7301;-65
2023/03/09 01:20:18;;;;;;;;;;;;;;;;;;1871219;28;8058;-65
2023/03/09 01:21:16;;;;;;;;;;;;;;;;;;1873065;28;8036;-65
2023/03/09 01:22:13;;;;;;;;;;;;;;;;;;1874980;28;7106;-64
2023/03/09 01:23:11;;;;;;;;;;;;;;;;;;1875643;28;7010;-65
2023/03/09 01:24:08;;;;;;;;;;;;;;;;;;1875456;28;7010;-65
2023/03/09 01:25:06;;;;;;;;;;;;;;;;;;1875489;28;7034;-65
2023/03/09 01:26:04;;;;;;;;;;;;;;;;;;1875387;28;7169;-65
2023/03/09 01:27:02;;;;;;;;;;;;;;;;;;1875493;28;7006;-64
2023/03/09 01:27:59;;;;;;;;;;;;;;;;;;1875252;28;7093;-65
2023/03/09 01:28:56;;;;;;;;;;;;;;;;;;1875094;28;7112;-65
2023/03/09 01:29:54;;;;;;;;;;;;;;;;;;1876158;28;7050;-64
2023/03/09 01:30:51;;;;;;;;;;;;;;;;;;1875235;28;8044;-65
2023/03/09 01:31:49;;;;;;;;;;;;;;;;;;1882050;28;7879;-64
2023/03/09 01:32:46;;;;;;;;;;;;;;;;;;1879550;28;7010;-64
2023/03/09 01:33:44;;;;;;;;;;;;;;;;;;1874859;28;7136;-64
2023/03/09 01:34:41;;;;;;;;;;;;;;;;;;1875094;28;8326;-65
2023/03/09 01:35:39;;;;;;;;;;;;;;;;;;1875258;28;7046;-65
2023/03/09 01:36:36;;;;;;;;;;;;;;;;;;1873729;28;7305;-65
2023/03/09 01:37:34;;;;;;;;;;;;;;;;;;1875119;28;8010;-65
2023/03/09 01:38:31;;;;;;;;;;;;;;;;;;1875396;28;7050;-65
2023/03/09 01:39:29;;;;;;;;;;;;;;;;;;1875209;28;7962;-65
2023/03/09 01:40:27;;;;;;;;;;;;;;;;;;1875019;28;7997;-65
2023/03/09 01:41:24;;;;;;;;;;;;;;;;;;1875412;28;8017;-64
2023/03/09 01:42:21;;;;;;;;;;;;;;;;;;1875103;28;7009;-65
2023/03/09 01:43:27;;;;;;;;;;;;;;;;;;1875294;28;7097;-64
2023/03/09 01:44:24;;;;;;;;;;;;;;;;;;1875557;28;7014;-65
2023/03/09 01:45:22;;;;;;;;;;;;;;;;;;1875425;28;7010;-64
2023/03/09 01:46:23;;;;;;;;;;;;;;;;;;1875388;28;7272;-65
2023/03/09 01:47:20;;;;;;;;;;;;;;;;;;1874547;28;7030;-65
2023/03/09 01:48:18;;;;;;;;;;;;;;;;;;1875220;28;7166;-64
2023/03/09 01:49:20;;;;;;;;;;;;;;;;;;1875286;28;7325;-64
2023/03/09 01:50:25;;;;;;;;;;;;;;;;;;1875259;28;8044;-64
2023/03/09 01:51:26;;;;;;;;;;;;;;;;;;1875538;28;8507;-64
2023/03/09 01:52:30;;;;;;;;;;;;;;;;;;1874188;28;8113;-65
2023/03/09 01:53:28;;;;;;;;;;;;;;;;;;1875517;28;7149;-64
2023/03/09 01:54:34;;;;;;;;;;;;;;;;;;1875388;28;7009;-64
2023/03/09 01:55:36;;;;;;;;;;;;;;;;;;1875117;28;7317;-64
2023/03/09 01:56:36;;;;;;;;;;;;;;;;;;1875221;28;7955;-65
2023/03/09 01:57:37;;;;;;;;;;;;;;;;;;1874930;28;7022;-65
2023/03/09 01:58:34;;;;;;;;;;;;;;;;;;1875355;28;7089;-65
2023/03/09 01:59:33;;;;;;;;;;;;;;;;;;1875119;28;7089;-65
2023/03/09 02:00:33;;;;;;;;;;;;;;;;;;1873883;28;7042;-64
2023/03/09 02:01:31;;;;;;;;;;;;;;;;;;1874941;28;7142;-64
2023/03/09 02:02:31;;;;;;;;;;;;;;;;;;1874456;28;7038;-65
2023/03/09 02:03:33;;;;;;;;;;;;;;;;;;1873548;28;7093;-65
2023/03/09 02:04:35;;;;;;;;;;;;;;;;;;1875161;28;7093;-65
2023/03/09 02:05:48;;;;;;;;;;;;;;;;;;1875913;28;7017;-65
2023/03/09 02:06:46;;;;;;;;;;;;;;;;;;1874405;28;7005;-64
2023/03/09 02:07:46;;;;;;;;;;;;;;;;;;1875131;28;7027;-65
2023/03/09 02:09:03;;;;;;;;;;;;;;;;;;1875176;28;7038;-65
2023/03/09 02:10:03;;;;;;;;;;;;;;;;;;1845264;29;8029;-65
2023/03/09 02:11:07;;;;;;;;;;;;;;;;;;1866113;28;7010;-65
2023/03/09 02:12:05;;;;;;;;;;;;;;;;;;1874756;28;7089;-64
2023/03/09 02:13:10;;;;;;;;;;;;;;;;;;1874350;28;8036;-65
2023/03/09 02:14:08;;;;;;;;;;;;;;;;;;1874056;28;7026;-65
2023/03/09 02:15:05;;;;;;;;;;;;;;;;;;1875421;28;7096;-65
2023/03/09 02:16:03;;;;;;;;;;;;;;;;;;1874687;28;7013;-64
2023/03/09 02:17:00;;;;;;;;;;;;;;;;;;1880292;28;7085;-65
2023/03/09 02:17:58;;;;;;;;;;;;;;;;;;1880523;28;7124;-65
2023/03/09 02:18:55;;;;;;;;;;;;;;;;;;1875492;28;7101;-65
2023/03/09 02:19:58;;;;;;;;;;;;;;;;;;1875623;28;7014;-64
2023/03/09 02:21:14;;;;;;;;;;;;;;;;;;1874894;28;7035;-65
2023/03/09 02:22:12;;;;;;;;;;;;;;;;;;1874169;28;8080;-65
2023/03/09 02:23:17;;;;;;;;;;;;;;;;;;1874668;28;7093;-64
2023/03/09 02:24:33;;;;;;;;;;;;;;;;;;1875112;28;7014;-65
2023/03/09 02:25:38;;;;;;;;;;;;;;;;;;1875222;28;7196;-65
2023/03/09 02:26:54;;;;;;;;;;;;;;;;;;1874871;28;9011;-64
2023/03/09 02:27:52;;;;;;;;;;;;;;;;;;1875162;28;7988;-65
2023/03/09 02:28:49;;;;;;;;;;;;;;;;;;1874918;28;7006;-65
2023/03/09 02:29:48;;;;;;;;;;;;;;;;;;1874616;28;7039;-64
2023/03/09 02:30:48;;;;;;;;;;;;;;;;;;1874679;28;7035;-64
2023/03/09 02:31:46;;;;;;;;;;;;;;;;;;1874797;28;7002;-64
2023/03/09 02:32:43;;;;;;;;;;;;;;;;;;1874669;28;7010;-64
2023/03/09 02:33:41;;;;;;;;;;;;;;;;;;1875019;28;7158;-64
2023/03/09 02:34:38;;;;;;;;;;;;;;;;;;1875018;28;7090;-65
2023/03/09 02:35:36;;;;;;;;;;;;;;;;;;1874571;28;7125;-65
2023/03/09 02:36:33;;;;;;;;;;;;;;;;;;1874511;28;7089;-65
2023/03/09 02:37:33;;;;;;;;;;;;;;;;;;1874727;28;8041;-65
2023/03/09 02:38:31;;;;;;;;;;;;;;;;;;1875104;28;8020;-64
2023/03/09 02:39:43;;;;;;;;;;;;;;;;;;1874999;28;7110;-65
2023/03/09 02:40:40;;;;;;;;;;;;;;;;;;1874763;28;7042;-65
2023/03/09 02:41:37;;;;;;;;;;;;;;;;;;1874776;28;7039;-64
2023/03/09 02:42:35;;;;;;;;;;;;;;;;;;1874621;28;7006;-64
2023/03/09 02:43:36;;;;;;;;;;;;;;;;;;1874755;28;7149;-65
2023/03/09 02:44:33;;;;;;;;;;;;;;;;;;1874883;28;8047;-65
2023/03/09 02:45:32;;;;;;;;;;;;;;;;;;1874431;28;8205;-65
2023/03/09 02:46:29;;;;;;;;;;;;;;;;;;1874589;28;7006;-64
2023/03/09 02:47:27;;;;;;;;;;;;;;;;;;1874817;28;7206;-65
2023/03/09 02:48:24;;;;;;;;;;;;;;;;;;1874618;28;7130;-65
2023/03/09 02:49:21;;;;;;;;;;;;;;;;;;1874179;28;7125;-65
2023/03/09 02:50:19;;;;;;;;;;;;;;;;;;1874748;28;7010;-65
2023/03/09 02:51:16;;;;;;;;;;;;;;;;;;1874833;28;7038;-65
2023/03/09 02:52:14;;;;;;;;;;;;;;;;;;1874255;28;7516;-65
2023/03/09 02:53:12;;;;;;;;;;;;;;;;;;1874777;28;7472;-64
2023/03/09 02:54:09;;;;;;;;;;;;;;;;;;1874938;28;7982;-65
2023/03/09 02:55:07;;;;;;;;;;;;;;;;;;1874509;28;7356;-65
2023/03/09 02:56:05;;;;;;;;;;;;;;;;;;1874351;28;7006;-65
2023/03/09 02:57:03;;;;;;;;;;;;;;;;;;1874828;28;8073;-65
2023/03/09 02:58:00;;;;;;;;;;;;;;;;;;1874595;28;7077;-65
2023/03/09 02:58:58;;;;;;;;;;;;;;;;;;1875043;28;7979;-64
2023/03/09 02:59:55;;;;;;;;;;;;;;;;;;1874487;28;8097;-64
2023/03/09 03:00:52;;;;;;;;;;;;;;;;;;1874534;28;7260;-65
2023/03/09 03:01:50;;;;;;;;;;;;;;;;;;1873736;28;7043;-64
2023/03/09 03:02:47;;;;;;;;;;;;;;;;;;1874188;28;7038;-64
2023/03/09 03:03:45;;;;;;;;;;;;;;;;;;1875113;28;7093;-64
2023/03/09 03:04:42;;;;;;;;;;;;;;;;;;1874461;28;7137;-65
2023/03/09 03:05:39;;;;;;;;;;;;;;;;;;1874543;28;7138;-65
2023/03/09 03:06:37;;;;;;;;;;;;;;;;;;1874299;28;7042;-64
2023/03/09 03:07:34;;;;;;;;;;;;;;;;;;1874286;28;7117;-64
2023/03/09 03:08:32;;;;;;;;;;;;;;;;;;1873755;28;8032;-64
2023/03/09 03:09:33;;;;;;;;;;;;;;;;;;1874434;28;7042;-65
2023/03/09 03:10:30;;;;;;;;;;;;;;;;;;1874658;28;8015;-65
2023/03/09 03:11:28;;;;;;;;;;;;;;;;;;1875172;28;7010;-65
2023/03/09 03:12:25;;;;;;;;;;;;;;;;;;1873871;28;7010;-65
2023/03/09 03:13:23;;;;;;;;;;;;;;;;;;1874612;28;7110;-65
2023/03/09 03:14:20;;;;;;;;;;;;;;;;;;1873727;28;7006;-64
2023/03/09 03:15:17;;;;;;;;;;;;;;;;;;1873326;28;7108;-64
2023/03/09 03:16:15;;;;;;;;;;;;;;;;;;1874878;28;8151;-65
2023/03/09 03:17:12;;;;;;;;;;;;;;;;;;1873522;28;8031;-65
2023/03/09 03:18:10;;;;;;;;;;;;;;;;;;1874779;28;7220;-64
2023/03/09 03:19:07;;;;;;;;;;;;;;;;;;1874441;28;7002;-65
2023/03/09 03:20:11;;;;;;;;;;;;;;;;;;1874325;28;7125;-64
2023/03/09 03:21:08;;;;;;;;;;;;;;;;;;1874123;29;7101;-65
2023/03/09 03:22:06;;;;;;;;;;;;;;;;;;1872971;29;7010;-65
2023/03/09 03:23:04;;;;;;;;;;;;;;;;;;1874117;29;7006;-65
2023/03/09 03:24:01;;;;;;;;;;;;;;;;;;1874506;29;7002;-64
2023/03/09 03:24:58;;;;;;;;;;;;;;;;;;1871267;29;7022;-65
2023/03/09 03:25:56;;;;;;;;;;;;;;;;;;1870365;29;7002;-65
2023/03/09 03:26:53;;;;;;;;;;;;;;;;;;1869704;29;7126;-65
2023/03/09 03:27:50;;;;;;;;;;;;;;;;;;1871337;29;7712;-65
2023/03/09 03:28:48;;;;;;;;;;;;;;;;;;1874560;29;7159;-65
2023/03/09 03:29:45;;;;;;;;;;;;;;;;;;1867186;29;7005;-64
2023/03/09 03:30:49;;;;;;;;;;;;;;;;;;1868225;29;7133;-65
2023/03/09 03:31:46;;;;;;;;;;;;;;;;;;1867346;29;7113;-65
2023/03/09 03:32:44;;;;;;;;;;;;;;;;;;1868929;29;8049;-65
2023/03/09 03:33:41;;;;;;;;;;;;;;;;;;1867146;29;7998;-65
2023/03/09 03:34:38;;;;;;;;;;;;;;;;;;1867055;29;7010;-65
2023/03/09 03:35:36;;;;;;;;;;;;;;;;;;1871700;29;7117;-65
2023/03/09 03:36:33;;;;;;;;;;;;;;;;;;1871639;29;8116;-65
2023/03/09 03:37:31;;;;;;;;;;;;;;;;;;1870934;29;7137;-64
2023/03/09 03:38:28;;;;;;;;;;;;;;;;;;1870015;29;7017;-65
2023/03/09 03:39:26;;;;;;;;;;;;;;;;;;1871390;29;7010;-65
2023/03/09 03:40:23;;;;;;;;;;;;;;;;;;1874298;29;7014;-65
2023/03/09 03:41:20;;;;;;;;;;;;;;;;;;1874173;29;7026;-65
2023/03/09 03:42:18;;;;;;;;;;;;;;;;;;1869715;29;8056;-65
2023/03/09 03:43:15;;;;;;;;;;;;;;;;;;1870778;29;8067;-65
2023/03/09 03:44:13;;;;;;;;;;;;;;;;;;1869932;29;7305;-65
2023/03/09 03:45:10;;;;;;;;;;;;;;;;;;1866701;29;7197;-65
2023/03/09 03:46:08;;;;;;;;;;;;;;;;;;1874130;29;8041;-65
2023/03/09 03:47:05;;;;;;;;;;;;;;;;;;1869214;29;7100;-65
2023/03/09 03:48:02;;;;;;;;;;;;;;;;;;1867234;29;7105;-65
2023/03/09 03:49:00;;;;;;;;;;;;;;;;;;1869102;29;7010;-65
2023/03/09 03:49:57;;;;;;;;;;;;;;;;;;1873383;29;8009;-65
2023/03/09 03:50:54;;;;;;;;;;;;;;;;;;1866995;29;7010;-65
2023/03/09 03:51:52;;;;;;;;;;;;;;;;;;1869973;29;7006;-65
2023/03/09 03:52:49;;;;;;;;;;;;;;;;;;1874670;29;7010;-65
2023/03/09 03:53:46;;;;;;;;;;;;;;;;;;1872512;29;7014;-65
2023/03/09 03:54:44;;;;;;;;;;;;;;;;;;1866874;29;7006;-65
2023/03/09 03:55:41;;;;;;;;;;;;;;;;;;1868468;29;7154;-65
2023/03/09 03:56:39;;;;;;;;;;;;;;;;;;1870053;29;7113;-65
2023/03/09 03:57:36;;;;;;;;;;;;;;;;;;1872527;29;7014;-65
2023/03/09 03:58:34;;;;;;;;;;;;;;;;;;1871169;29;7104;-65
2023/03/09 03:59:31;;;;;;;;;;;;;;;;;;1872847;29;7082;-65
2023/03/09 04:00:28;;;;;;;;;;;;;;;;;;1865665;29;7023;-65
2023/03/09 04:01:26;;;;;;;;;;;;;;;;;;1869208;29;8052;-65
2023/03/09 04:02:23;;;;;;;;;;;;;;;;;;1871328;29;8112;-65
2023/03/09 04:03:20;;;;;;;;;;;;;;;;;;1868535;29;7146;-65
2023/03/09 04:04:18;;;;;;;;;;;;;;;;;;1867066;29;7005;-64
2023/03/09 04:05:15;;;;;;;;;;;;;;;;;;1871738;29;7077;-65
2023/03/09 04:06:15;;;;;;;;;;;;;;;;;;1867680;29;7140;-64
2023/03/09 04:07:12;;;;;;;;;;;;;;;;;;1866546;29;7137;-64
2023/03/09 04:08:10;;;;;;;;;;;;;;;;;;1867184;29;7105;-65
2023/03/09 04:09:07;;;;;;;;;;;;;;;;;;1866548;29;7100;-65
2023/03/09 04:10:05;;;;;;;;;;;;;;;;;;1868514;29;7093;-64
2023/03/09 04:11:06;;;;;;;;;;;;;;;;;;1873727;29;8029;-65
2023/03/09 04:12:04;;;;;;;;;;;;;;;;;;1869257;29;8976;-65
2023/03/09 04:13:01;;;;;;;;;;;;;;;;;;1868200;29;7329;-65
2023/03/09 04:13:59;;;;;;;;;;;;;;;;;;1866908;29;7010;-65
2023/03/09 04:14:56;;;;;;;;;;;;;;;;;;1867257;29;7038;-65
2023/03/09 04:15:54;;;;;;;;;;;;;;;;;;1868230;29;7357;-64
2023/03/09 04:16:51;;;;;;;;;;;;;;;;;;1867073;29;8068;-64
2023/03/09 04:17:48;;;;;;;;;;;;;;;;;;1867212;29;7027;-65
2023/03/09 04:18:46;;;;;;;;;;;;;;;;;;1867901;29;7014;-64
2023/03/09 04:19:43;;;;;;;;;;;;;;;;;;1864003;29;7129;-64
2023/03/09 04:20:42;;;;;;;;;;;;;;;;;;1858673;29;7134;-65
2023/03/09 04:21:39;;;;;;;;;;;;;;;;;;1869330;29;7010;-65
2023/03/09 04:22:37;;;;;;;;;;;;;;;;;;1873437;28;7014;-65
2023/03/09 04:23:34;;;;;;;;;;;;;;;;;;1873884;29;7992;-64
2023/03/09 04:24:32;;;;;;;;;;;;;;;;;;1874519;29;7033;-65
2023/03/09 04:25:30;;;;;;;;;;;;;;;;;;1873332;29;8012;-64
2023/03/09 04:26:27;;;;;;;;;;;;;;;;;;1874457;29;8047;-64
2023/03/09 04:27:24;;;;;;;;;;;;;;;;;;1874627;29;7005;-65
2023/03/09 04:28:22;;;;;;;;;;;;;;;;;;1874032;29;7006;-65
2023/03/09 04:29:20;;;;;;;;;;;;;;;;;;1873988;29;7005;-65
2023/03/09 04:30:20;;;;;;;;;;;;;;;;;;1874572;29;7113;-64
2023/03/09 04:31:17;;;;;;;;;;;;;;;;;;1866385;29;7022;-65
2023/03/09 04:32:15;;;;;;;;;;;;;;;;;;1858777;29;8498;-64
2023/03/09 04:33:12;;;;;;;;;;;;;;;;;;1864613;29;7053;-65
2023/03/09 04:34:10;;;;;;;;;;;;;;;;;;1873038;29;7173;-64
2023/03/09 04:35:09;;;;;;;;;;;;;;;;;;1874791;29;8155;-65
2023/03/09 04:36:06;;;;;;;;;;;;;;;;;;1874714;29;7018;-64
2023/03/09 04:37:04;;;;;;;;;;;;;;;;;;1874210;28;7014;-65
2023/03/09 04:38:01;;;;;;;;;;;;;;;;;;1875547;28;8028;-65
2023/03/09 04:38:58;;;;;;;;;;;;;;;;;;1875703;28;7093;-64
2023/03/09 04:39:55;;;;;;;;;;;;;;;;;;1875757;28;7014;-64
2023/03/09 04:40:53;;;;;;;;;;;;;;;;;;1876112;28;7126;-65
2023/03/09 04:41:50;;;;;;;;;;;;;;;;;;1875945;28;8028;-65
2023/03/09 04:42:47;;;;;;;;;;;;;;;;;;1876109;28;8580;-65
2023/03/09 04:43:46;;;;;;;;;;;;;;;;;;1875737;28;8029;-65
2023/03/09 04:44:43;;;;;;;;;;;;;;;;;;1876002;28;7014;-65
2023/03/09 04:45:41;;;;;;;;;;;;;;;;;;1867859;29;7210;-65
2023/03/09 04:46:38;;;;;;;;;;;;;;;;;;1868115;29;7101;-64
2023/03/09 04:47:37;;;;;;;;;;;;;;;;;;1875800;28;7301;-64
2023/03/09 04:48:34;;;;;;;;;;;;;;;;;;1876382;28;7009;-65
2023/03/09 04:49:31;;;;;;;;;;;;;;;;;;1875109;28;7045;-64
2023/03/09 04:50:29;;;;;;;;;;;;;;;;;;1874840;28;8004;-64
2023/03/09 04:51:26;;;;;;;;;;;;;;;;;;1876037;28;7010;-64
2023/03/09 04:52:24;;;;;;;;;;;;;;;;;;1875847;28;7100;-65
2023/03/09 04:53:21;;;;;;;;;;;;;;;;;;1876178;28;7054;-64
2023/03/09 04:54:19;;;;;;;;;;;;;;;;;;1876924;28;7006;-65
2023/03/09 04:55:16;;;;;;;;;;;;;;;;;;1875620;28;7010;-64
2023/03/09 04:56:14;;;;;;;;;;;;;;;;;;1875718;28;7036;-64
2023/03/09 04:57:11;;;;;;;;;;;;;;;;;;1875700;28;7009;-64
2023/03/09 04:58:09;;;;;;;;;;;;;;;;;;1875552;28;8044;-65
2023/03/09 04:59:06;;;;;;;;;;;;;;;;;;1875513;28;8016;-64
2023/03/09 05:00:07;;;;;;;;;;;;;;;;;;1875757;28;7006;-64
2023/03/09 05:01:05;;;;;;;;;;;;;;;;;;1875947;28;9067;-64
2023/03/09 05:02:03;;;;;;;;;;;;;;;;;;1875980;28;7093;-64
2023/03/09 05:03:00;;;;;;;;;;;;;;;;;;1875235;28;7010;-64
2023/03/09 05:03:57;;;;;;;;;;;;;;;;;;1875626;28;8064;-64
2023/03/09 05:04:55;;;;;;;;;;;;;;;;;;1875819;28;7006;-64
2023/03/09 05:05:52;;;;;;;;;;;;;;;;;;1874127;28;7014;-64
2023/03/09 05:06:49;;;;;;;;;;;;;;;;;;1875966;28;7039;-64
2023/03/09 05:07:47;;;;;;;;;;;;;;;;;;1876132;28;7128;-64
2023/03/09 05:08:45;;;;;;;;;;;;;;;;;;1875908;28;8087;-65
2023/03/09 05:09:42;;;;;;;;;;;;;;;;;;1867573;29;7244;-65
2023/03/09 05:10:39;;;;;;;;;;;;;;;;;;1867645;29;7010;-65
2023/03/09 05:11:37;;;;;;;;;;;;;;;;;;1874718;28;7010;-65
2023/03/09 05:12:34;;;;;;;;;;;;;;;;;;1875696;28;8081;-65
2023/03/09 05:13:31;;;;;;;;;;;;;;;;;;1875691;28;7133;-65
2023/03/09 05:14:29;;;;;;;;;;;;;;;;;;1875923;28;7280;-65
2023/03/09 05:15:27;;;;;;;;;;;;;;;;;;1875269;28;7152;-64
2023/03/09 05:16:24;;;;;;;;;;;;;;;;;;1875552;28;7030;-65
2023/03/09 05:17:21;;;;;;;;;;;;;;;;;;1875641;28;7002;-65
2023/03/09 05:18:19;;;;;;;;;;;;;;;;;;1875433;28;7006;-64
2023/03/09 05:19:16;;;;;;;;;;;;;;;;;;1875512;28;8018;-64
2023/03/09 05:20:14;;;;;;;;;;;;;;;;;;1875223;28;7104;-64
2023/03/09 05:21:11;;;;;;;;;;;;;;;;;;1875637;28;7093;-64
2023/03/09 05:22:08;;;;;;;;;;;;;;;;;;1875431;28;7181;-64
2023/03/09 05:23:06;;;;;;;;;;;;;;;;;;1875320;28;7996;-65
2023/03/09 05:24:04;;;;;;;;;;;;;;;;;;1868022;29;7010;-64
2023/03/09 05:25:01;;;;;;;;;;;;;;;;;;1867854;29;8154;-64
2023/03/09 05:25:59;;;;;;;;;;;;;;;;;;1874117;28;7034;-64
2023/03/09 05:26:57;;;;;;;;;;;;;;;;;;1875451;28;7010;-64
2023/03/09 05:27:54;;;;;;;;;;;;;;;;;;1875797;28;8039;-65
2023/03/09 05:28:52;;;;;;;;;;;;;;;;;;1875777;28;8052;-64
2023/03/09 05:29:50;;;;;;;;;;;;;;;;;;1875628;28;7096;-65
2023/03/09 05:30:49;;;;;;;;;;;;;;;;;;1875531;28;7010;-65
2023/03/09 05:31:46;;;;;;;;;;;;;;;;;;1875299;28;7010;-65
2023/03/09 05:32:44;;;;;;;;;;;;;;;;;;1875397;28;7017;-65
2023/03/09 05:33:41;;;;;;;;;;;;;;;;;;1875750;28;7010;-65
2023/03/09 05:34:39;;;;;;;;;;;;;;;;;;1874347;28;7129;-64
2023/03/09 05:35:36;;;;;;;;;;;;;;;;;;1875719;28;7017;-65
2023/03/09 05:36:33;;;;;;;;;;;;;;;;;;1875285;28;7040;-64
2023/03/09 05:37:32;;;;;;;;;;;;;;;;;;1875217;28;7013;-65
2023/03/09 05:38:29;;;;;;;;;;;;;;;;;;1875128;28;8024;-64
2023/03/09 05:39:27;;;;;;;;;;;;;;;;;;1875279;28;7030;-64
2023/03/09 05:40:24;;;;;;;;;;;;;;;;;;1875748;28;7829;-64
2023/03/09 05:41:22;;;;;;;;;;;;;;;;;;1875676;28;7010;-64
2023/03/09 05:42:19;;;;;;;;;;;;;;;;;;1875768;28;7125;-64
2023/03/09 05:43:17;;;;;;;;;;;;;;;;;;1875123;28;7103;-65
2023/03/09 05:44:14;;;;;;;;;;;;;;;;;;1875117;28;7022;-64
2023/03/09 05:45:11;;;;;;;;;;;;;;;;;;1874830;28;7060;-65
2023/03/09 05:46:13;;;;;;;;;;;;;;;;;;1875275;28;7006;-65
2023/03/09 05:47:11;;;;;;;;;;;;;;;;;;1876098;28;7109;-65
2023/03/09 05:48:08;;;;;;;;;;;;;;;;;;1875318;28;7010;-64
2023/03/09 05:49:05;;;;;;;;;;;;;;;;;;1874780;28;7265;-65
2023/03/09 05:50:03;;;;;;;;;;;;;;;;;;1875054;28;7055;-65
2023/03/09 05:51:00;;;;;;;;;;;;;;;;;;1873866;28;8043;-65
2023/03/09 05:51:58;;;;;;;;;;;;;;;;;;1874105;28;7034;-64
2023/03/09 05:52:55;;;;;;;;;;;;;;;;;;1874497;28;7018;-65
2023/03/09 05:53:53;;;;;;;;;;;;;;;;;;1874604;28;7129;-64
2023/03/09 05:54:50;;;;;;;;;;;;;;;;;;1875222;28;7091;-64
2023/03/09 05:55:51;;;;;;;;;;;;;;;;;;1875345;28;7059;-65
2023/03/09 05:56:52;;;;;;;;;;;;;;;;;;1875236;28;7109;-65
2023/03/09 05:57:49;;;;;;;;;;;;;;;;;;1875035;28;7042;-64
2023/03/09 05:58:50;;;;;;;;;;;;;;;;;;1874953;28;7006;-65
2023/03/09 05:59:48;;;;;;;;;;;;;;;;;;1875768;28;7142;-65
2023/03/09 06:00:45;;;;;;;;;;;;;;;;;;1875871;28;7093;-65
2023/03/09 06:01:43;;;;;;;;;;;;;;;;;;1874800;28;7002;-65
2023/03/09 06:02:40;;;;;;;;;;;;;;;;;;1874290;28;7110;-64
2023/03/09 06:03:38;;;;;;;;;;;;;;;;;;1875436;28;8053;-65
2023/03/09 06:04:35;;;;;;;;;;;;;;;;;;1875030;28;7129;-65
2023/03/09 06:05:32;;;;;;;;;;;;;;;;;;1875707;28;7006;-65
2023/03/09 06:06:30;;;;;;;;;;;;;;;;;;1874518;28;7018;-65
2023/03/09 06:07:28;;;;;;;;;;;;;;;;;;1874005;28;7022;-65
2023/03/09 06:08:26;;;;;;;;;;;;;;;;;;1874164;28;8028;-65
2023/03/09 06:09:23;;;;;;;;;;;;;;;;;;1874008;28;7329;-65
2023/03/09 06:10:20;;;;;;;;;;;;;;;;;;1875449;28;7054;-65
2023/03/09 06:11:18;;;;;;;;;;;;;;;;;;1875305;28;7093;-65
2023/03/09 06:12:17;;;;;;;;;;;;;;;;;;1873637;28;7006;-65
2023/03/09 06:13:14;;;;;;;;;;;;;;;;;;1875848;28;7014;-65
2023/03/09 06:14:11;;;;;;;;;;;;;;;;;;1875176;28;7005;-65
2023/03/09 06:15:09;;;;;;;;;;;;;;;;;;1873563;28;7006;-65
2023/03/09 06:16:10;;;;;;;;;;;;;;;;;;1874855;28;7010;-65
2023/03/09 06:17:08;;;;;;;;;;;;;;;;;;1875111;28;7125;-65
2023/03/09 06:18:05;;;;;;;;;;;;;;;;;;1875334;28;7297;-65
2023/03/09 06:19:03;;;;;;;;;;;;;;;;;;1875453;28;7331;-65
2023/03/09 06:20:01;;;;;;;;;;;;;;;;;;1873840;28;7104;-65
2023/03/09 06:21:03;;;;;;;;;;;;;;;;;;1873776;28;7006;-65
2023/03/09 06:22:00;;;;;;;;;;;;;;;;;;1874771;28;7107;-64
2023/03/09 06:22:57;;;;;;;;;;;;;;;;;;1874736;28;7474;-65
2023/03/09 06:23:55;;;;;;;;;;;;;;;;;;1875003;28;7141;-65
2023/03/09 06:24:53;;;;;;;;;;;;;;;;;;1875255;28;7105;-65
2023/03/09 06:25:50;;;;;;;;;;;;;;;;;;1867622;29;8072;-65
2023/03/09 06:26:48;;;;;;;;;;;;;;;;;;1866942;29;7010;-65
2023/03/09 06:27:45;;;;;;;;;;;;;;;;;;1873910;28;7010;-64
2023/03/09 06:28:45;;;;;;;;;;;;;;;;;;1874803;28;7042;-64
2023/03/09 06:29:42;;;;;;;;;;;;;;;;;;1874785;28;8047;-65
2023/03/09 06:30:42;;;;;;;;;;;;;;;;;;1875098;28;7010;-64
2023/03/09 06:31:39;;;;;;;;;;;;;;;;;;1875337;28;8051;-65
2023/03/09 06:32:37;;;;;;;;;;;;;;;;;;1874768;28;7982;-64
2023/03/09 06:33:34;;;;;;;;;;;;;;;;;;1874687;28;7124;-65
2023/03/09 06:34:31;;;;;;;;;;;;;;;;;;1874525;28;7010;-65
2023/03/09 06:35:29;;;;;;;;;;;;;;;;;;1874699;28;7366;-64
2023/03/09 06:36:26;;;;;;;;;;;;;;;;;;1875037;28;7312;-65
2023/03/09 06:37:23;;;;;;;;;;;;;;;;;;1874720;28;7010;-65
2023/03/09 06:38:22;;;;;;;;;;;;;;;;;;1875114;28;7006;-65
2023/03/09 06:39:20;;;;;;;;;;;;;;;;;;1873987;28;7006;-65
2023/03/09 06:40:17;;;;;;;;;;;;;;;;;;1873421;28;7112;-65
2023/03/09 06:41:15;;;;;;;;;;;;;;;;;;1874997;28;7035;-65
2023/03/09 06:42:13;;;;;;;;;;;;;;;;;;1875256;28;7046;-65
2023/03/09 06:43:11;;;;;;;;;;;;;;;;;;1875492;28;7009;-65
2023/03/09 06:44:08;;;;;;;;;;;;;;;;;;1875042;28;7018;-65
2023/03/09 06:45:07;;;;;;;;;;;;;;;;;;1875102;28;7097;-64